I74 weather

Grimes Field
Urbana, Ohio, United States

Public forecast

Using degrees Fahrenheit for public forecast. Weather courtesy of forecast.io.

Closest aviation weather report (METAR) to Grimes Field

Closest report is Bellefontaine Regional Airport, 14.7 nm (27.2 km) NNW. Retrieved 2020/05/30 12:35 UTC (7 minutes ago):

KEDJ 301235Z AUTO 35007KT 10SM CLR 14/14 A3013 RMK AO1

Closest aviation forecast (TAF) to Grimes Field

Closest forecast is Wright-Patterson Air Force Base, 22.9 nm (42.3 km) SW. Retrieved 2020/05/30 11:07 UTC (2 hours ago):

TAF KFFO 301100Z 3011/3117 VRB06KT 9999 FEW050 QNH3009INS BECMG 3015/3016 30012KT 9999 BKN045 QNH3010INS BECMG 3114/3115 36012KT 9999 SKC QNH3029INS TX20/3018Z TN09/3111Z